Time;durP1;ratioP1;P1;durP2;ratioP2;P2;SDS_P1;SDS_P2;PMS_P1;PMS_P2;Temp;Humidity;BMP_temperature;BMP_pressure;BME280_temperature;BME280_humidity;BME280_pressure;Samples;Min_cycle;Max_cycle;Signal;HPM_P1;HPM_P2
2022/01/20 00:02:01;;;;;;;26.67;3.73;;;4.10;99.90;;;;;;5113026;28;20024;-77
2022/01/20 00:04:42;;;;;;;31.80;5.33;;;4.10;99.90;;;;;;5113180;28;20027;-77
2022/01/20 00:20:29;;;;;;;26.10;3.77;;;4.10;99.90;;;;;;5113195;28;20058;-76
2022/01/20 00:26:06;;;;;;;27.90;4.90;;;4.10;99.90;;;;;;5114165;28;20028;-73
2022/01/20 00:28:41;;;;;;;31.87;3.97;;;4.10;99.90;;;;;;5097156;28;20040;-72
2022/01/20 00:33:44;;;;;;;20.93;2.90;;;4.10;99.90;;;;;;5113976;28;20059;-72
2022/01/20 00:38:40;;;;;;;24.73;2.93;;;4.20;99.90;;;;;;5116008;28;20417;-72
2022/01/20 00:41:09;;;;;;;24.53;3.07;;;4.30;99.90;;;;;;5114651;28;20038;-72
2022/01/20 00:43:35;;;;;;;21.37;3.30;;;4.40;99.90;;;;;;5117499;28;20032;-72
2022/01/20 00:46:01;;;;;;;19.50;2.97;;;4.40;99.90;;;;;;5115603;28;20492;-72
2022/01/20 00:48:26;;;;;;;24.47;3.37;;;4.50;99.90;;;;;;5114118;28;20043;-73
2022/01/20 00:50:52;;;;;;;20.23;3.83;;;4.50;99.90;;;;;;5113118;28;20040;-77
2022/01/20 00:53:17;;;;;;;19.00;2.53;;;4.50;99.90;;;;;;5113995;28;20064;-77
2022/01/20 00:55:43;;;;;;;24.07;2.57;;;4.60;99.90;;;;;;5113792;28;20100;-77
2022/01/20 00:58:09;;;;;;;22.87;2.87;;;4.60;99.90;;;;;;5113768;28;20031;-77
2022/01/20 01:00:36;;;;;;;22.77;3.63;;;4.60;99.90;;;;;;5112369;28;20043;-77
2022/01/20 01:03:02;;;;;;;19.33;3.27;;;4.60;99.90;;;;;;5113606;28;20057;-72
2022/01/20 01:05:28;;;;;;;23.07;2.73;;;4.60;99.90;;;;;;5113696;28;20080;-72
2022/01/20 01:07:56;;;;;;;18.40;3.00;;;4.60;99.90;;;;;;5113663;28;20034;-77
2022/01/20 01:10:27;;;;;;;27.57;2.77;;;4.60;99.90;;;;;;5113738;28;20043;-77
2022/01/20 01:15:25;;;;;;;25.40;3.77;;;4.70;99.90;;;;;;5112310;28;20028;-77
2022/01/20 01:23:21;;;;;;;19.33;2.93;;;4.60;99.90;;;;;;5113638;28;20062;-77
2022/01/20 01:25:46;;;;;;;19.27;3.70;;;4.60;99.90;;;;;;5113238;28;20479;-77
2022/01/20 01:28:12;;;;;;;25.50;2.97;;;4.60;99.90;;;;;;5112149;28;20028;-77
2022/01/20 01:33:09;;;;;;;20.57;3.17;;;4.70;99.90;;;;;;5114406;28;20019;-77
2022/01/20 01:35:39;;;;;;;29.13;2.73;;;4.60;99.90;;;;;;5117176;28;20494;-77
2022/01/20 01:40:32;;;;;;;16.87;3.57;;;4.60;99.90;;;;;;5116987;28;20031;-77
2022/01/20 01:43:02;;;;;;;16.80;2.27;;;4.60;99.90;;;;;;5115698;28;20032;-77
2022/01/20 01:45:36;;;;;;;18.37;2.20;;;4.60;99.90;;;;;;5116874;28;20027;-77
2022/01/20 01:48:04;;;;;;;18.80;3.17;;;4.60;99.90;;;;;;5115578;28;20028;-76
2022/01/20 01:50:30;;;;;;;13.07;2.40;;;4.70;99.90;;;;;;5116819;28;20028;-77
2022/01/20 01:52:57;;;;;;;16.67;2.17;;;4.80;99.90;;;;;;5115460;28;20024;-77
2022/01/20 01:55:23;;;;;;;15.23;1.73;;;4.80;99.90;;;;;;5115362;28;20022;-77
2022/01/20 01:57:50;;;;;;;15.80;2.03;;;4.80;99.90;;;;;;5115370;28;20469;-77
2022/01/20 02:00:17;;;;;;;19.93;1.83;;;4.80;99.90;;;;;;5116704;28;20023;-76
2022/01/20 02:02:43;;;;;;;17.17;2.27;;;4.80;99.90;;;;;;5116507;28;20528;-76
2022/01/20 02:05:14;;;;;;;21.10;2.37;;;4.90;99.90;;;;;;5115159;28;20036;-77
2022/01/20 02:18:50;;;;;;;14.60;2.15;;;5.00;99.90;;;;;;5115353;28;20080;-72
2022/01/20 02:21:16;;;;;;;;;;;5.10;99.90;;;;;;5116620;28;20027;-74
2022/01/20 02:23:42;;;;;;;28.13;2.40;;;5.10;99.90;;;;;;5114704;28;19915;-73
2022/01/20 02:26:08;;;;;;;17.00;2.10;;;5.10;99.90;;;;;;5114816;28;20160;-77
2022/01/20 02:28:34;;;;;;;19.23;2.97;;;5.10;99.90;;;;;;5114745;28;20053;-77
2022/01/20 02:31:00;;;;;;;18.40;2.33;;;5.10;99.90;;;;;;5114749;28;20138;-77
2022/01/20 02:33:29;;;;;;;17.00;1.47;;;5.10;99.90;;;;;;5114646;28;20016;-76
2022/01/20 02:35:58;;;;;;;14.30;1.23;;;5.10;99.90;;;;;;5115960;28;20069;-77
2022/01/20 02:38:35;;;;;;;18.47;2.10;;;5.10;99.80;;;;;;5115997;28;20424;-77
2022/01/20 02:46:30;;;;;;;16.20;3.10;;;5.00;99.80;;;;;;5115027;28;20047;-73
2022/01/20 02:48:56;;;;;;;18.27;2.10;;;5.00;99.90;;;;;;5115658;28;20019;-73
2022/01/20 02:51:22;;;;;;;11.87;1.93;;;5.00;99.90;;;;;;5115588;28;20099;-73
2022/01/20 02:53:48;;;;;;;22.87;2.20;;;5.00;99.90;;;;;;5115496;28;20104;-73
2022/01/20 02:56:14;;;;;;;18.93;1.70;;;5.00;99.90;;;;;;5115571;28;20490;-73
2022/01/20 02:58:39;;;;;;;19.67;2.37;;;5.00;99.90;;;;;;5114215;28;20027;-73
2022/01/20 03:01:05;;;;;;;11.77;1.53;;;5.00;99.90;;;;;;5115427;28;20036;-73
2022/01/20 03:03:31;;;;;;;16.07;2.10;;;5.00;99.90;;;;;;5114048;28;20114;-73
2022/01/20 03:05:56;;;;;;;14.93;2.10;;;4.90;99.90;;;;;;5113989;28;20062;-73
2022/01/20 03:08:22;;;;;;;15.03;1.77;;;5.00;99.90;;;;;;5097111;28;20035;-73
2022/01/20 03:10:48;;;;;;;16.93;1.80;;;4.90;99.80;;;;;;5113943;28;20066;-73
2022/01/20 03:13:13;;;;;;;13.27;2.57;;;4.90;99.90;;;;;;5096780;28;20131;-77
2022/01/20 03:15:39;;;;;;;12.00;2.10;;;4.90;99.90;;;;;;5113886;28;20046;-76
2022/01/20 03:18:05;;;;;;;13.13;1.47;;;4.90;99.90;;;;;;5113811;28;20023;-76
2022/01/20 03:20:32;;;;;;;13.83;2.07;;;4.90;99.90;;;;;;5115080;28;20080;-77
2022/01/20 03:22:59;;;;;;;14.73;1.57;;;5.00;99.90;;;;;;5096842;28;20502;-73
2022/01/20 03:25:25;;;;;;;13.67;1.67;;;5.00;99.90;;;;;;5113641;28;20438;-73
2022/01/20 03:27:50;;;;;;;13.77;1.60;;;5.00;99.90;;;;;;5113622;28;20058;-76
2022/01/20 03:30:16;;;;;;;16.50;1.43;;;5.00;99.90;;;;;;5113490;28;20085;-79
2022/01/20 03:32:42;;;;;;;19.73;2.23;;;5.10;99.60;;;;;;5113586;28;20211;-77
2022/01/20 03:35:08;;;;;;;15.07;1.73;;;5.10;99.70;;;;;;5113692;28;20031;-73
2022/01/20 03:37:35;;;;;;;12.47;2.33;;;5.10;99.50;;;;;;5113471;28;20016;-73
2022/01/20 03:40:02;;;;;;;16.27;1.60;;;5.10;99.40;;;;;;5114735;28;20036;-73
2022/01/20 03:42:27;;;;;;;17.80;1.53;;;5.20;99.50;;;;;;5114648;28;20092;-73
2022/01/20 03:44:53;;;;;;;14.20;1.20;;;5.10;99.50;;;;;;5113645;28;20487;-72
2022/01/20 03:47:21;;;;;;;14.17;1.60;;;5.10;99.60;;;;;;5114156;28;20023;-72
2022/01/20 03:52:41;;;;;;;19.98;1.70;;;5.10;99.50;;;;;;5012194;28;20026;-73
2022/01/20 03:55:07;;;;;;;16.83;1.73;;;5.20;99.50;;;;;;5114547;28;20107;-74
2022/01/20 03:57:32;;;;;;;13.43;1.30;;;5.10;99.50;;;;;;5113111;28;20460;-74
2022/01/20 03:59:58;;;;;;;19.07;1.53;;;5.10;99.60;;;;;;5113560;28;20110;-74
2022/01/20 04:02:24;;;;;;;11.60;1.60;;;5.10;99.70;;;;;;5113501;28;20089;-73
2022/01/20 04:04:49;;;;;;;14.60;1.73;;;5.10;99.80;;;;;;5114613;28;20411;-73
2022/01/20 04:07:15;;;;;;;11.37;1.63;;;5.20;99.90;;;;;;5114386;28;20043;-73
2022/01/20 04:09:41;;;;;;;13.70;2.13;;;5.30;99.90;;;;;;5096019;28;20104;-73
2022/01/20 04:12:07;;;;;;;17.43;1.83;;;5.10;99.90;;;;;;5112727;28;20059;-75
2022/01/20 04:14:34;;;;;;;24.53;1.90;;;5.20;99.90;;;;;;5112777;28;20039;-74
2022/01/20 04:17:03;;;;;;;19.40;1.67;;;5.20;99.90;;;;;;5113066;28;20023;-74
2022/01/20 04:19:32;;;;;;;12.57;1.40;;;5.10;99.90;;;;;;5080030;28;20028;-74
2022/01/20 04:21:59;;;;;;;13.70;1.37;;;5.10;99.90;;;;;;5111845;28;20019;-73
2022/01/20 04:24:24;;;;;;;14.80;1.63;;;5.10;99.90;;;;;;5112596;28;20035;-73
2022/01/20 04:26:50;;;;;;;13.30;1.73;;;5.20;99.90;;;;;;5094505;28;20506;-73
2022/01/20 04:29:16;;;;;;;13.43;1.30;;;5.10;99.90;;;;;;5094164;28;20051;-73
2022/01/20 04:31:43;;;;;;;12.00;1.37;;;5.20;99.90;;;;;;5112197;28;20100;-80
2022/01/20 04:34:10;;;;;;;14.17;2.37;;;5.20;99.50;;;;;;5112743;28;20069;-77
2022/01/20 04:36:40;;;;;;;13.43;1.50;;;5.20;99.20;;;;;;5113154;28;20073;-77
2022/01/20 04:39:09;;;;;;;7.43;1.23;;;5.20;99.30;;;;;;5112525;28;20101;-73
2022/01/20 04:41:35;;;;;;;7.87;1.10;;;5.20;99.30;;;;;;5113903;28;20024;-73
2022/01/20 04:44:02;;;;;;;12.23;1.23;;;5.20;99.60;;;;;;5113561;28;20095;-73
2022/01/20 04:46:37;;;;;;;9.57;1.10;;;5.30;99.40;;;;;;5112379;28;20023;-73
2022/01/20 04:59:33;;;;;;;9.20;0.80;;;5.30;99.30;;;;;;5098045;28;20472;-78
2022/01/20 05:01:58;;;;;;;7.73;0.80;;;5.30;99.40;;;;;;5113342;28;20035;-78
2022/01/20 05:04:25;;;;;;;13.00;1.03;;;5.30;99.40;;;;;;5112330;28;20028;-78
2022/01/20 05:06:54;;;;;;;8.60;1.20;;;5.30;99.50;;;;;;5112428;28;20036;-78
2022/01/20 05:09:21;;;;;;;8.13;0.70;;;5.40;99.50;;;;;;5099776;28;20115;-78
2022/01/20 05:11:52;;;;;;;8.37;0.80;;;5.40;99.50;;;;;;5116356;28;20072;-77
2022/01/20 05:14:18;;;;;;;14.93;1.00;;;5.40;99.50;;;;;;5099545;28;20040;-78
2022/01/20 05:16:44;;;;;;;7.53;0.97;;;5.40;99.80;;;;;;5117345;28;20483;-78
2022/01/20 05:19:10;;;;;;;7.67;1.20;;;5.30;99.60;;;;;;5116148;28;20016;-78
2022/01/20 05:21:35;;;;;;;14.23;1.20;;;5.40;99.60;;;;;;5116284;28;20032;-79
2022/01/20 05:24:01;;;;;;;15.47;2.40;;;5.30;99.30;;;;;;5117356;28;20032;-78
2022/01/20 05:26:27;;;;;;;12.37;1.30;;;5.20;98.80;;;;;;5099060;28;20506;-77
2022/01/20 05:28:53;;;;;;;12.87;1.57;;;5.30;98.80;;;;;;5116064;28;20031;-76
2022/01/20 05:31:19;;;;;;;13.40;1.30;;;5.30;98.40;;;;;;5117082;28;20031;-77
2022/01/20 05:33:44;;;;;;;16.13;1.90;;;5.30;98.30;;;;;;5117533;28;20072;-77
2022/01/20 05:36:10;;;;;;;10.47;1.23;;;5.20;98.30;;;;;;5115899;28;20024;-78
2022/01/20 05:38:35;;;;;;;14.27;1.73;;;5.30;98.40;;;;;;5098842;28;20038;-77
2022/01/20 05:41:01;;;;;;;15.37;1.77;;;5.20;98.20;;;;;;5117015;28;20028;-77
2022/01/20 05:43:27;;;;;;;9.83;2.03;;;5.20;97.80;;;;;;5115730;28;20442;-77
2022/01/20 05:45:53;;;;;;;16.10;1.50;;;5.20;97.80;;;;;;5115642;28;20027;-77
2022/01/20 05:48:31;;;;;;;13.00;1.83;;;5.10;97.60;;;;;;5115628;28;20020;-78
2022/01/20 05:50:57;;;;;;;16.43;1.57;;;5.10;97.60;;;;;;5100356;28;20475;-77
2022/01/20 05:53:22;;;;;;;19.50;2.07;;;5.10;97.80;;;;;;5115641;28;20073;-77
2022/01/20 05:55:49;;;;;;;17.90;2.87;;;5.10;97.40;;;;;;5098435;28;20041;-77
2022/01/20 05:58:15;;;;;;;19.30;2.00;;;5.00;96.90;;;;;;5115421;28;20058;-77
2022/01/20 06:00:42;;;;;;;18.30;1.70;;;5.00;96.60;;;;;;5116649;28;20051;-77
2022/01/20 06:05:52;;;;;;;17.37;2.70;;;5.00;96.10;;;;;;5115803;28;20564;-79
2022/01/20 06:08:19;;;;;;;15.80;1.90;;;5.00;94.90;;;;;;5116332;28;20031;-76
2022/01/20 06:10:45;;;;;;;13.30;1.63;;;5.00;94.40;;;;;;5115058;28;20028;-73
2022/01/20 06:13:11;;;;;;;26.80;3.37;;;5.10;94.70;;;;;;5115572;28;20035;-73
2022/01/20 06:15:37;;;;;;;16.87;1.97;;;5.00;94.20;;;;;;5087239;28;20070;-73
2022/01/20 06:18:02;;;;;;;16.60;2.50;;;5.00;94.20;;;;;;5115877;28;20031;-72
2022/01/20 06:20:29;;;;;;;15.97;2.93;;;5.00;93.90;;;;;;5113793;28;20027;-73
2022/01/20 06:22:55;;;;;;;20.83;2.77;;;5.00;94.30;;;;;;5110978;28;20036;-74
2022/01/20 06:25:21;;;;;;;19.53;2.07;;;5.00;93.90;;;;;;5115790;28;20111;-73
2022/01/20 06:27:47;;;;;;;22.97;2.20;;;5.00;93.50;;;;;;5112673;28;20153;-73
2022/01/20 06:30:13;;;;;;;13.80;2.13;;;5.00;93.10;;;;;;5111793;28;20041;-74
2022/01/20 06:32:39;;;;;;;20.80;2.10;;;5.00;92.90;;;;;;5112563;28;20495;-73
2022/01/20 06:35:05;;;;;;;19.50;2.30;;;4.90;92.70;;;;;;5094299;28;20035;-73
2022/01/20 06:37:31;;;;;;;13.97;1.60;;;4.90;92.40;;;;;;5113435;28;20024;-73
2022/01/20 06:39:57;;;;;;;18.73;1.90;;;4.90;92.50;;;;;;5111663;28;20502;-73
2022/01/20 06:42:22;;;;;;;11.87;1.63;;;4.90;91.90;;;;;;5113143;28;20028;-74
2022/01/20 06:44:48;;;;;;;12.40;1.60;;;4.90;91.40;;;;;;5114566;28;20042;-74
2022/01/20 06:47:14;;;;;;;17.10;1.80;;;4.90;91.30;;;;;;5095871;28;20123;-74
2022/01/20 06:49:40;;;;;;;12.97;1.70;;;4.90;91.20;;;;;;5113258;28;20031;-73
2022/01/20 06:52:06;;;;;;;9.37;1.10;;;4.90;91.00;;;;;;5115002;28;20036;-74
2022/01/20 06:54:32;;;;;;;18.77;1.20;;;4.90;91.10;;;;;;5113310;28;20472;-73
2022/01/20 06:56:59;;;;;;;10.20;2.07;;;4.90;91.50;;;;;;5114095;28;20065;-78
2022/01/20 06:59:25;;;;;;;11.20;1.13;;;4.80;90.20;;;;;;5109451;28;20034;-79
2022/01/20 07:01:51;;;;;;;10.53;1.10;;;4.80;88.30;;;;;;5096847;28;20016;-74
2022/01/20 07:04:18;;;;;;;13.23;1.30;;;4.90;89.00;;;;;;5103447;28;20023;-74
2022/01/20 07:06:44;;;;;;;11.50;1.30;;;4.80;88.70;;;;;;5106758;28;20019;-74
2022/01/20 07:09:10;;;;;;;8.30;0.97;;;4.70;88.80;;;;;;5096105;28;20483;-77
2022/01/20 07:11:37;;;;;;;11.53;1.73;;;4.80;88.60;;;;;;5096371;28;20388;-73
2022/01/20 07:14:04;;;;;;;16.23;1.30;;;4.80;89.70;;;;;;5112810;28;20051;-73
2022/01/20 07:16:29;;;;;;;5.67;0.80;;;4.80;89.20;;;;;;5112593;28;20032;-78
2022/01/20 07:18:58;;;;;;;9.17;0.93;;;4.70;90.00;;;;;;5113611;28;20106;-78
2022/01/20 07:21:24;;;;;;;12.43;1.37;;;4.70;90.00;;;;;;5113493;28;20451;-73
2022/01/20 07:23:50;;;;;;;8.97;1.00;;;4.70;90.00;;;;;;5113613;28;20059;-73
2022/01/20 07:26:16;;;;;;;10.37;0.90;;;4.70;90.00;;;;;;5114750;28;20024;-73
2022/01/20 07:28:42;;;;;;;5.90;0.97;;;4.70;90.10;;;;;;5114929;28;20031;-73
2022/01/20 07:31:08;;;;;;;14.10;1.20;;;4.70;90.20;;;;;;5114451;28;20038;-73
2022/01/20 07:33:35;;;;;;;16.10;1.57;;;4.60;89.90;;;;;;5113477;28;20076;-73
2022/01/20 07:36:01;;;;;;;10.00;0.70;;;4.60;90.20;;;;;;5114865;28;20024;-73
2022/01/20 07:38:27;;;;;;;7.90;1.10;;;4.50;90.30;;;;;;5114658;28;20030;-73
2022/01/20 07:40:52;;;;;;;6.53;1.00;;;4.50;90.20;;;;;;5113061;28;20479;-73
2022/01/20 07:43:19;;;;;;;13.87;1.40;;;4.50;90.10;;;;;;5114736;28;20020;-73
2022/01/20 07:45:45;;;;;;;9.97;1.10;;;4.40;90.10;;;;;;5113530;28;20037;-73
2022/01/20 07:48:11;;;;;;;8.90;1.20;;;4.30;90.20;;;;;;5114650;28;20055;-77
2022/01/20 07:50:37;;;;;;;9.73;0.80;;;4.30;90.50;;;;;;5114264;28;20066;-77
2022/01/20 07:53:04;;;;;;;10.17;1.00;;;4.30;90.90;;;;;;5112831;28;20023;-73
2022/01/20 07:55:30;;;;;;;14.47;1.53;;;4.30;90.70;;;;;;5114353;28;20024;-77
2022/01/20 07:57:56;;;;;;;9.63;1.10;;;4.40;90.90;;;;;;5089892;28;20024;-78
2022/01/20 08:00:21;;;;;;;6.47;0.93;;;4.40;90.70;;;;;;5094202;28;20020;-77
2022/01/20 08:02:48;;;;;;;9.70;0.90;;;4.40;90.50;;;;;;5095998;28;20019;-77
2022/01/20 08:05:14;;;;;;;10.33;1.40;;;4.40;90.80;;;;;;5112303;28;20027;-78
2022/01/20 08:07:40;;;;;;;10.23;1.07;;;4.40;91.00;;;;;;5112370;28;20035;-77
2022/01/20 08:10:07;;;;;;;15.23;1.47;;;4.50;90.60;;;;;;5113605;28;20031;-77
2022/01/20 08:12:33;;;;;;;8.43;1.27;;;4.50;90.50;;;;;;5113964;28;20028;-77
2022/01/20 08:15:00;;;;;;;10.17;1.03;;;4.60;90.30;;;;;;5112178;28;20387;-79
2022/01/20 08:17:26;;;;;;;10.63;1.13;;;4.60;90.40;;;;;;5113000;28;20057;-76
2022/01/20 08:19:51;;;;;;;12.17;1.83;;;4.60;90.20;;;;;;5088594;28;20032;-73
2022/01/20 08:22:17;;;;;;;11.93;1.23;;;4.60;90.20;;;;;;5078129;28;20448;-73
2022/01/20 08:24:43;;;;;;;7.10;1.47;;;4.60;90.20;;;;;;5092273;28;20020;-73
2022/01/20 08:27:10;;;;;;;15.43;2.10;;;4.60;90.20;;;;;;5106147;28;20767;-73
2022/01/20 08:29:36;;;;;;;10.23;2.17;;;4.70;90.10;;;;;;5110675;28;20483;-74
2022/01/20 08:32:03;;;;;;;11.07;1.30;;;4.70;90.00;;;;;;5111898;28;20128;-73
2022/01/20 08:34:29;;;;;;;8.77;1.07;;;4.70;89.90;;;;;;5088739;28;20027;-73
2022/01/20 08:36:55;;;;;;;6.37;0.80;;;4.80;90.00;;;;;;5111301;28;20019;-74
2022/01/20 08:42:03;;;;;;;14.27;1.30;;;4.80;89.40;;;;;;5110969;28;20023;-76
2022/01/20 08:44:29;;;;;;;10.73;0.97;;;4.80;88.70;;;;;;5111688;28;20110;-74
2022/01/20 08:46:57;;;;;;;12.60;1.20;;;4.80;88.70;;;;;;5113218;28;20103;-75
2022/01/20 08:49:23;;;;;;;13.77;1.73;;;4.80;89.20;;;;;;5079202;28;20026;-74
2022/01/20 08:51:49;;;;;;;9.30;1.40;;;4.80;89.60;;;;;;5113367;28;20059;-74
2022/01/20 08:54:15;;;;;;;11.77;1.37;;;4.80;89.90;;;;;;5112261;28;20054;-78
2022/01/20 08:56:42;;;;;;;15.70;1.90;;;4.90;90.00;;;;;;5112360;28;20024;-78
2022/01/20 08:59:10;;;;;;;10.87;1.10;;;4.90;89.90;;;;;;5113578;28;20098;-79
2022/01/20 09:01:37;;;;;;;6.90;0.97;;;4.90;90.00;;;;;;5113357;28;20081;-77
2022/01/20 09:04:02;;;;;;;7.40;1.10;;;5.00;90.20;;;;;;5113343;28;20032;-77
2022/01/20 09:06:28;;;;;;;11.60;1.07;;;5.00;90.20;;;;;;5112364;28;20084;-77
2022/01/20 09:08:54;;;;;;;9.43;1.40;;;5.00;90.40;;;;;;5113446;28;20050;-77
2022/01/20 09:11:23;;;;;;;17.13;1.87;;;5.00;90.10;;;;;;5112194;28;20027;-77
2022/01/20 09:16:37;;;;;;;13.03;1.10;;;5.00;90.00;;;;;;5113741;28;20119;-77
2022/01/20 09:19:04;;;;;;;11.23;1.40;;;5.00;90.10;;;;;;5112468;28;20030;-74
2022/01/20 09:21:29;;;;;;;6.43;1.43;;;4.90;90.70;;;;;;5113420;28;20027;-77
2022/01/20 09:23:56;;;;;;;11.57;1.33;;;4.90;91.20;;;;;;5112211;28;20396;-77
2022/01/20 09:26:23;;;;;;;15.17;1.73;;;4.70;91.70;;;;;;5112186;28;20070;-77
2022/01/20 09:28:49;;;;;;;11.60;1.70;;;4.70;91.90;;;;;;5111978;28;20031;-77
2022/01/20 09:31:14;;;;;;;11.30;1.20;;;4.60;92.20;;;;;;5113055;28;20395;-78
2022/01/20 09:33:40;;;;;;;15.37;1.33;;;4.50;92.30;;;;;;5111937;28;20024;-73
2022/01/20 09:36:09;;;;;;;12.67;1.30;;;4.50;92.40;;;;;;5113027;28;20035;-74
2022/01/20 09:38:35;;;;;;;7.60;0.90;;;4.60;92.50;;;;;;5112510;28;20425;-73
2022/01/20 09:41:02;;;;;;;8.57;1.00;;;4.50;92.70;;;;;;5094942;28;20081;-73
2022/01/20 09:43:27;;;;;;;9.60;1.20;;;4.50;92.80;;;;;;5113093;28;20103;-73
2022/01/20 09:45:55;;;;;;;10.17;1.43;;;4.50;92.80;;;;;;5111784;28;20051;-74
2022/01/20 09:48:22;;;;;;;11.40;1.70;;;4.50;92.90;;;;;;5094968;28;20023;-74
2022/01/20 09:50:48;;;;;;;8.57;1.00;;;4.50;92.90;;;;;;5110757;28;20035;-74
2022/01/20 09:53:14;;;;;;;7.03;1.07;;;4.60;93.20;;;;;;5111777;28;20060;-74
2022/01/20 09:55:40;;;;;;;5.83;0.90;;;4.80;93.60;;;;;;5097552;28;20019;-73
2022/01/20 09:58:07;;;;;;;7.10;1.27;;;5.10;93.80;;;;;;5115566;28;20493;-74
2022/01/20 10:00:33;;;;;;;10.70;1.10;;;5.50;94.30;;;;;;5115377;28;20429;-74
2022/01/20 10:03:12;;;;;;;10.47;1.53;;;6.20;94.70;;;;;;5114233;28;20512;-74
2022/01/20 10:05:43;;;;;;;8.00;1.17;;;6.80;93.80;;;;;;5114933;28;20068;-74
2022/01/20 10:08:15;;;;;;;9.60;1.37;;;7.20;92.60;;;;;;5115018;28;20072;-74
2022/01/20 10:10:43;;;;;;;8.57;1.33;;;7.10;91.20;;;;;;5116393;28;20020;-74
2022/01/20 10:13:10;;;;;;;11.07;1.27;;;6.90;90.20;;;;;;5114902;28;20119;-74
2022/01/20 10:15:36;;;;;;;13.33;1.40;;;6.80;89.50;;;;;;5115060;28;20433;-74
2022/01/20 10:18:12;;;;;;;12.97;1.83;;;6.40;88.40;;;;;;5098065;28;20034;-74
2022/01/20 10:20:54;;;;;;;10.50;1.67;;;6.30;89.60;;;;;;5114468;28;20379;-74
2022/01/20 10:23:38;;;;;;;12.07;1.73;;;6.80;90.70;;;;;;5114842;28;20023;-74
2022/01/20 10:26:06;;;;;;;13.88;1.90;;;7.50;90.70;;;;;;5116017;28;20098;-74
2022/01/20 10:28:44;;;;;;;15.93;1.80;;;7.90;88.90;;;;;;5115775;28;20474;-74
2022/01/20 10:31:11;;;;;;;13.07;1.93;;;8.20;87.80;;;;;;5115762;28;20020;-74
2022/01/20 10:33:41;;;;;;;10.83;2.10;;;8.10;85.70;;;;;;5097326;28;20482;-74
2022/01/20 10:36:08;;;;;;;14.30;2.07;;;7.90;84.40;;;;;;5115304;28;20035;-73
2022/01/20 10:38:34;;;;;;;9.20;1.53;;;7.70;83.70;;;;;;5114806;28;20209;-73
2022/01/20 10:41:00;;;;;;;16.20;2.10;;;7.70;84.40;;;;;;5114424;28;20119;-73
2022/01/20 10:43:27;;;;;;;12.07;1.33;;;7.60;83.90;;;;;;5115801;28;20420;-73
2022/01/20 10:46:08;;;;;;;14.17;2.33;;;7.40;82.80;;;;;;5114443;28;20035;-73
2022/01/20 10:48:34;;;;;;;16.37;1.63;;;7.10;83.10;;;;;;5115660;28;20024;-73
2022/01/20 10:51:00;;;;;;;15.00;2.33;;;6.90;83.30;;;;;;5115636;28;20035;-73
2022/01/20 10:53:26;;;;;;;13.50;2.43;;;6.70;83.70;;;;;;5115447;28;20092;-73
2022/01/20 10:56:02;;;;;;;13.83;1.50;;;6.60;84.30;;;;;;5095962;28;20046;-74
2022/01/20 10:58:28;;;;;;;10.83;1.40;;;6.90;86.70;;;;;;5114220;28;20117;-74
2022/01/20 11:00:55;;;;;;;8.97;1.30;;;7.30;85.90;;;;;;5115742;28;20046;-74
2022/01/20 11:03:24;;;;;;;10.57;1.60;;;7.40;82.30;;;;;;5115418;28;20076;-73
2022/01/20 11:05:51;;;;;;;13.20;2.03;;;7.30;81.00;;;;;;5114969;28;20027;-74
2022/01/20 11:08:17;;;;;;;7.93;1.23;;;7.30;80.30;;;;;;5113621;28;20032;-74
2022/01/20 11:10:44;;;;;;;10.63;1.27;;;7.50;81.70;;;;;;5114790;28;20027;-74
2022/01/20 11:13:12;;;;;;;8.70;1.00;;;7.90;82.10;;;;;;5114551;28;20119;-74
2022/01/20 11:15:40;;;;;;;10.83;2.03;;;8.50;80.90;;;;;;5113916;28;20019;-74
2022/01/20 11:18:08;;;;;;;10.60;1.70;;;8.90;78.90;;;;;;5114990;28;20051;-78
2022/01/20 11:20:46;;;;;;;10.27;1.20;;;9.30;76.00;;;;;;5112895;28;20024;-77
2022/01/20 11:23:12;;;;;;;8.43;1.10;;;9.40;75.00;;;;;;5113579;28;20028;-77
2022/01/20 11:25:41;;;;;;;10.35;1.33;;;9.40;72.90;;;;;;5115495;28;20448;-76
2022/01/20 11:28:22;;;;;;;10.70;1.20;;;9.40;72.60;;;;;;5114791;28;20047;-78
2022/01/20 11:31:01;;;;;;;7.18;1.27;;;9.70;71.60;;;;;;5120807;28;20027;-73
2022/01/20 11:33:38;;;;;;;10.15;0.93;;;10.10;72.70;;;;;;5123922;28;20028;-76
2022/01/20 11:36:09;;;;;;;7.55;1.00;;;10.50;71.30;;;;;;5137163;28;20046;-78
2022/01/20 11:38:46;;;;;;;9.77;1.00;;;10.80;67.70;;;;;;5130728;28;20112;-74
2022/01/20 11:41:17;;;;;;;8.95;1.20;;;10.80;65.50;;;;;;5121804;28;20514;-75
2022/01/20 11:44:13;;;;;;;9.63;1.40;;;10.80;63.60;;;;;;5118114;28;20032;-74
2022/01/20 11:46:43;;;;;;;9.15;1.23;;;10.40;62.20;;;;;;5117982;28;20025;-79
2022/01/20 11:49:11;;;;;;;9.00;0.80;;;10.20;62.90;;;;;;5118633;28;20019;-74
2022/01/20 11:51:56;;;;;;;10.13;1.40;;;10.00;62.60;;;;;;5116748;28;20031;-74
2022/01/20 11:54:29;;;;;;;7.82;1.33;;;9.60;63.90;;;;;;5113576;28;20383;-77
2022/01/20 11:57:14;;;;;;;6.47;0.93;;;9.30;64.40;;;;;;5113559;28;20020;-75
2022/01/20 11:59:56;;;;;;;7.77;1.10;;;9.10;64.40;;;;;;5113308;28;20342;-76
2022/01/20 12:02:37;;;;;;;7.77;1.00;;;8.80;64.30;;;;;;5113374;28;20020;-80
2022/01/20 12:05:18;;;;;;;8.97;0.97;;;8.50;64.40;;;;;;5113259;28;20020;-76
2022/01/20 12:07:45;;;;;;;10.93;0.90;;;8.40;64.80;;;;;;5113055;28;20024;-75
2022/01/20 12:10:17;;;;;;;10.20;0.87;;;8.20;66.10;;;;;;5113102;28;20026;-75
2022/01/20 12:12:43;;;;;;;6.37;0.90;;;8.10;69.10;;;;;;5114245;28;20042;-78
2022/01/20 12:15:10;;;;;;;10.70;1.30;;;7.80;70.20;;;;;;5095789;28;20035;-75
2022/01/20 12:17:37;;;;;;;6.87;1.00;;;7.60;71.30;;;;;;5113433;28;20107;-77
2022/01/20 12:20:04;;;;;;;5.27;0.90;;;7.40;71.80;;;;;;5114109;28;20028;-77
2022/01/20 12:22:30;;;;;;;5.80;0.70;;;7.50;73.60;;;;;;5079057;28;20031;-73
2022/01/20 12:24:57;;;;;;;5.27;0.60;;;8.10;76.40;;;;;;5112710;28;20085;-73
2022/01/20 12:27:25;;;;;;;7.60;0.83;;;8.90;76.60;;;;;;5113999;28;20037;-73
2022/01/20 12:29:51;;;;;;;6.65;0.90;;;9.90;76.50;;;;;;5113763;28;20023;-80
2022/01/20 12:32:19;;;;;;;4.55;0.82;;;10.70;72.80;;;;;;5095500;28;20015;-75
2022/01/20 12:34:59;;;;;;;8.00;1.13;;;11.10;66.00;;;;;;5113874;28;20016;-79
2022/01/20 12:37:39;;;;;;;6.70;0.75;;;11.60;63.20;;;;;;5112438;28;20052;-74
2022/01/20 12:40:06;;;;;;;8.13;0.95;;;12.00;59.60;;;;;;5112421;28;20360;-78
2022/01/20 12:42:34;;;;;;;8.73;1.17;;;12.00;58.20;;;;;;5111961;28;20059;-78
2022/01/20 12:45:54;;;;;;;9.65;1.15;;;11.60;56.50;;;;;;5113099;28;20026;-74
2022/01/20 12:47:48;;;;;;;10.60;1.25;;;11.10;57.00;;;;;;5110214;28;20024;-78
2022/01/20 12:50:14;;;;;;;9.93;1.25;;;10.40;57.30;;;;;;5111694;28;20392;-78
2022/01/20 12:52:50;;;;;;;10.30;1.00;;;9.80;58.80;;;;;;5111964;28;20052;-73
2022/01/20 12:55:17;;;;;;;12.40;1.23;;;9.40;60.70;;;;;;5111244;28;20031;-77
2022/01/20 12:57:43;;;;;;;11.33;1.43;;;9.10;61.50;;;;;;5113028;28;20492;-78
2022/01/20 13:00:10;;;;;;;9.53;0.90;;;9.00;62.20;;;;;;5095353;28;20024;-73
2022/01/20 13:02:35;;;;;;;8.67;1.20;;;8.70;63.00;;;;;;5112952;28;20056;-78
2022/01/20 13:05:04;;;;;;;9.70;1.50;;;8.60;64.10;;;;;;5113157;28;20024;-80
2022/01/20 13:07:34;;;;;;;11.87;2.23;;;8.40;63.80;;;;;;5113101;28;20027;-80
2022/01/20 13:10:08;;;;;;;10.27;1.33;;;8.20;64.80;;;;;;5112884;28;21720;-77
2022/01/20 13:12:35;;;;;;;10.80;1.10;;;8.00;65.40;;;;;;5111425;28;20020;-77
2022/01/20 13:15:03;;;;;;;9.10;1.20;;;7.90;66.50;;;;;;5112910;28;20035;-73
2022/01/20 13:17:31;;;;;;;9.33;1.17;;;8.00;67.40;;;;;;5089056;28;20071;-76
2022/01/20 13:19:58;;;;;;;7.23;1.50;;;8.00;67.70;;;;;;5092840;28;20063;-73
2022/01/20 13:23:54;;;;;;;11.53;2.03;;;8.10;68.40;;;;;;5092976;28;20058;-73
2022/01/20 13:25:16;;;;;;;16.83;1.47;;;8.60;70.40;;;;;;5085424;28;20051;-78
2022/01/20 13:28:04;;;;;;;10.23;1.73;;;9.50;69.90;;;;;;5092894;28;20050;-78
2022/01/20 13:30:40;;;;;;;11.13;1.60;;;10.10;68.30;;;;;;5095275;28;20043;-76
2022/01/20 13:33:18;;;;;;;8.95;0.95;;;10.80;65.50;;;;;;5096717;28;20038;-73
2022/01/20 13:35:47;;;;;;;14.77;2.13;;;11.40;65.00;;;;;;5112248;28;20103;-74
2022/01/20 13:38:13;;;;;;;8.80;1.23;;;11.70;62.80;;;;;;5096501;28;20030;-74
2022/01/20 13:40:43;;;;;;;8.65;1.00;;;11.80;61.30;;;;;;5095321;28;20036;-74
2022/01/20 13:46:04;;;;;;;11.20;1.92;;;12.00;60.10;;;;;;5095170;28;20123;-74
2022/01/20 13:48:34;;;;;;;9.13;1.17;;;12.20;59.60;;;;;;5096211;28;20093;-73
2022/01/20 13:51:02;;;;;;;9.95;1.30;;;12.00;59.00;;;;;;5094690;28;20035;-74
2022/01/20 13:53:30;;;;;;;8.25;1.00;;;11.90;59.60;;;;;;5094996;28;20383;-73
2022/01/20 13:56:00;;;;;;;9.30;1.33;;;11.70;60.30;;;;;;5095963;28;20028;-78
2022/01/20 13:58:31;;;;;;;8.95;1.38;;;11.20;58.30;;;;;;5094765;28;20107;-74
2022/01/20 14:01:00;;;;;;;12.40;1.40;;;10.70;58.90;;;;;;5111980;28;20047;-74
2022/01/20 14:03:26;;;;;;;11.90;1.87;;;10.20;59.80;;;;;;5096021;28;20097;-73
2022/01/20 14:05:55;;;;;;;11.93;1.73;;;9.80;61.00;;;;;;5111910;28;20051;-73
2022/01/20 14:08:22;;;;;;;8.97;1.20;;;9.50;61.30;;;;;;5096018;28;20471;-74